sensor_id;sensor_type;location;lat;lon;timestamp;P1;durP1;ratioP1;P2;durP2;ratioP2
57385;SDS011;66483;56.490;21.010;2023-07-16T11:34:54;5.63;;;2.25;;
57385;SDS011;66483;56.490;21.010;2023-07-16T11:37:24;5.15;;;2.33;;
57385;SDS011;66483;56.490;21.010;2023-07-16T11:40:26;5.30;;;2.35;;
57385;SDS011;66483;56.490;21.010;2023-07-16T11:42:46;6.70;;;2.05;;
57385;SDS011;66483;56.490;21.010;2023-07-16T11:45:15;6.97;;;2.17;;
57385;SDS011;66483;56.490;21.010;2023-07-16T11:47:53;6.55;;;2.28;;
57385;SDS011;66483;56.490;21.010;2023-07-16T11:50:21;6.47;;;2.78;;
57385;SDS011;66483;56.490;21.010;2023-07-16T11:52:52;5.65;;;2.35;;
57385;SDS011;66483;56.490;21.010;2023-07-16T11:55:20;4.35;;;1.92;;
57385;SDS011;66483;56.490;21.010;2023-07-16T11:57:47;5.53;;;2.15;;
57385;SDS011;66483;56.490;21.010;2023-07-16T12:00:14;5.80;;;2.38;;
57385;SDS011;66483;56.490;21.010;2023-07-16T12:02:44;7.03;;;2.58;;
57385;SDS011;66483;56.490;21.010;2023-07-16T12:05:18;6.95;;;2.63;;
57385;SDS011;66483;56.490;21.010;2023-07-16T12:11:57;5.32;;;2.72;;
57385;SDS011;66483;56.490;21.010;2023-07-16T12:19:33;57.20;;;18.30;;
57385;SDS011;66483;56.490;21.010;2023-07-16T12:22:00;41.90;;;15.32;;
57385;SDS011;66483;56.490;21.010;2023-07-16T12:24:27;27.58;;;10.85;;
57385;SDS011;66483;56.490;21.010;2023-07-16T12:26:55;17.95;;;9.07;;
57385;SDS011;66483;56.490;21.010;2023-07-16T12:29:22;13.00;;;5.53;;
57385;SDS011;66483;56.490;21.010;2023-07-16T12:31:50;13.65;;;6.15;;
57385;SDS011;66483;56.490;21.010;2023-07-16T12:34:17;12.65;;;5.95;;
57385;SDS011;66483;56.490;21.010;2023-07-16T12:36:44;9.65;;;4.47;;
57385;SDS011;66483;56.490;21.010;2023-07-16T12:39:11;10.65;;;4.90;;
57385;SDS011;66483;56.490;21.010;2023-07-16T12:41:38;8.90;;;4.20;;
57385;SDS011;66483;56.490;21.010;2023-07-16T12:44:05;12.25;;;4.28;;
57385;SDS011;66483;56.490;21.010;2023-07-16T12:46:32;12.88;;;4.90;;
57385;SDS011;66483;56.490;21.010;2023-07-16T12:48:59;8.43;;;4.28;;
57385;SDS011;66483;56.490;21.010;2023-07-16T12:51:27;8.60;;;3.85;;
57385;SDS011;66483;56.490;21.010;2023-07-16T12:53:54;8.45;;;4.10;;
57385;SDS011;66483;56.490;21.010;2023-07-16T12:56:21;6.55;;;3.95;;
57385;SDS011;66483;56.490;21.010;2023-07-16T13:13:17;10.95;;;5.60;;
57385;SDS011;66483;56.490;21.010;2023-07-16T13:15:50;8.15;;;4.88;;
57385;SDS011;66483;56.490;21.010;2023-07-16T13:18:17;7.93;;;5.28;;
57385;SDS011;66483;56.490;21.010;2023-07-16T13:20:44;9.48;;;6.03;;
57385;SDS011;66483;56.490;21.010;2023-07-16T13:23:12;9.70;;;4.93;;
57385;SDS011;66483;56.490;21.010;2023-07-16T13:25:39;8.25;;;5.30;;
57385;SDS011;66483;56.490;21.010;2023-07-16T13:28:07;10.10;;;5.00;;
57385;SDS011;66483;56.490;21.010;2023-07-16T13:30:34;7.43;;;5.15;;
57385;SDS011;66483;56.490;21.010;2023-07-16T13:33:01;12.77;;;5.47;;
57385;SDS011;66483;56.490;21.010;2023-07-16T13:35:28;7.22;;;4.40;;
57385;SDS011;66483;56.490;21.010;2023-07-16T13:37:57;8.70;;;5.82;;
57385;SDS011;66483;56.490;21.010;2023-07-16T13:40:24;10.57;;;6.25;;
57385;SDS011;66483;56.490;21.010;2023-07-16T13:42:51;6.47;;;5.35;;
57385;SDS011;66483;56.490;21.010;2023-07-16T13:45:21;8.50;;;5.10;;
57385;SDS011;66483;56.490;21.010;2023-07-16T13:47:52;7.72;;;3.85;;
57385;SDS011;66483;56.490;21.010;2023-07-16T13:50:20;7.75;;;4.80;;
57385;SDS011;66483;56.490;21.010;2023-07-16T13:52:48;7.57;;;4.38;;
57385;SDS011;66483;56.490;21.010;2023-07-16T13:55:15;10.18;;;5.28;;
57385;SDS011;66483;56.490;21.010;2023-07-16T13:57:43;8.05;;;5.07;;
57385;SDS011;66483;56.490;21.010;2023-07-16T14:00:10;10.05;;;4.85;;
57385;SDS011;66483;56.490;21.010;2023-07-16T14:02:38;10.80;;;4.60;;
57385;SDS011;66483;56.490;21.010;2023-07-16T14:05:05;11.10;;;5.00;;
57385;SDS011;66483;56.490;21.010;2023-07-16T14:07:33;9.25;;;4.65;;
57385;SDS011;66483;56.490;21.010;2023-07-16T14:10:00;9.52;;;5.30;;
57385;SDS011;66483;56.490;21.010;2023-07-16T14:12:28;10.32;;;4.57;;
57385;SDS011;66483;56.490;21.010;2023-07-16T14:14:55;12.07;;;6.95;;
57385;SDS011;66483;56.490;21.010;2023-07-16T14:17:22;12.95;;;4.88;;
57385;SDS011;66483;56.490;21.010;2023-07-16T14:19:50;9.48;;;4.75;;
57385;SDS011;66483;56.490;21.010;2023-07-16T14:22:17;10.00;;;4.78;;
57385;SDS011;66483;56.490;21.010;2023-07-16T14:24:45;9.02;;;4.82;;
57385;SDS011;66483;56.490;21.010;2023-07-16T14:27:17;9.32;;;4.90;;
57385;SDS011;66483;56.490;21.010;2023-07-16T14:29:46;8.98;;;4.00;;
57385;SDS011;66483;56.490;21.010;2023-07-16T14:32:30;10.52;;;5.53;;
57385;SDS011;66483;56.490;21.010;2023-07-16T14:34:58;7.78;;;3.50;;
57385;SDS011;66483;56.490;21.010;2023-07-16T14:37:26;7.18;;;4.53;;
57385;SDS011;66483;56.490;21.010;2023-07-16T14:39:54;9.88;;;4.82;;
57385;SDS011;66483;56.490;21.010;2023-07-16T14:42:21;8.45;;;3.97;;
57385;SDS011;66483;56.490;21.010;2023-07-16T14:44:48;8.63;;;4.10;;
57385;SDS011;66483;56.490;21.010;2023-07-16T14:47:15;7.57;;;3.97;;
57385;SDS011;66483;56.490;21.010;2023-07-16T14:49:44;8.05;;;4.93;;
57385;SDS011;66483;56.490;21.010;2023-07-16T14:52:11;11.80;;;4.60;;
57385;SDS011;66483;56.490;21.010;2023-07-16T14:54:38;9.27;;;5.25;;
57385;SDS011;66483;56.490;21.010;2023-07-16T14:57:06;8.35;;;4.20;;
57385;SDS011;66483;56.490;21.010;2023-07-16T14:59:33;9.10;;;4.75;;
57385;SDS011;66483;56.490;21.010;2023-07-16T15:02:01;7.53;;;4.22;;
57385;SDS011;66483;56.490;21.010;2023-07-16T15:04:28;9.25;;;4.72;;
57385;SDS011;66483;56.490;21.010;2023-07-16T15:06:55;8.52;;;4.97;;
57385;SDS011;66483;56.490;21.010;2023-07-16T15:09:22;8.88;;;5.22;;
57385;SDS011;66483;56.490;21.010;2023-07-16T15:11:50;8.27;;;4.45;;
57385;SDS011;66483;56.490;21.010;2023-07-16T15:14:17;9.73;;;4.80;;
57385;SDS011;66483;56.490;21.010;2023-07-16T15:16:45;8.27;;;4.07;;
57385;SDS011;66483;56.490;21.010;2023-07-16T15:19:17;7.55;;;4.68;;
57385;SDS011;66483;56.490;21.010;2023-07-16T15:21:46;9.27;;;3.75;;
57385;SDS011;66483;56.490;21.010;2023-07-16T15:24:13;8.27;;;4.20;;
57385;SDS011;66483;56.490;21.010;2023-07-16T15:26:40;10.30;;;5.20;;
57385;SDS011;66483;56.490;21.010;2023-07-16T15:29:08;7.88;;;5.03;;
57385;SDS011;66483;56.490;21.010;2023-07-16T15:31:35;6.32;;;4.15;;
57385;SDS011;66483;56.490;21.010;2023-07-16T15:34:02;8.50;;;4.35;;
57385;SDS011;66483;56.490;21.010;2023-07-16T15:36:29;12.25;;;5.28;;
57385;SDS011;66483;56.490;21.010;2023-07-16T15:38:56;8.18;;;4.15;;
57385;SDS011;66483;56.490;21.010;2023-07-16T15:41:23;10.63;;;4.55;;
57385;SDS011;66483;56.490;21.010;2023-07-16T15:43:53;7.57;;;4.75;;
57385;SDS011;66483;56.490;21.010;2023-07-16T15:46:20;8.50;;;4.72;;
57385;SDS011;66483;56.490;21.010;2023-07-16T15:48:47;7.25;;;4.03;;
57385;SDS011;66483;56.490;21.010;2023-07-16T15:51:16;7.82;;;4.18;;
57385;SDS011;66483;56.490;21.010;2023-07-16T15:53:43;7.50;;;3.92;;
57385;SDS011;66483;56.490;21.010;2023-07-16T15:56:11;6.72;;;4.07;;
57385;SDS011;66483;56.490;21.010;2023-07-16T15:58:38;6.55;;;3.40;;
57385;SDS011;66483;56.490;21.010;2023-07-16T16:01:07;8.13;;;4.43;;
57385;SDS011;66483;56.490;21.010;2023-07-16T16:03:35;7.55;;;4.65;;
57385;SDS011;66483;56.490;21.010;2023-07-16T16:06:03;9.50;;;4.97;;
57385;SDS011;66483;56.490;21.010;2023-07-16T16:08:30;9.57;;;5.03;;
57385;SDS011;66483;56.490;21.010;2023-07-16T16:11:00;8.20;;;5.30;;
57385;SDS011;66483;56.490;21.010;2023-07-16T16:13:27;8.35;;;4.53;;
57385;SDS011;66483;56.490;21.010;2023-07-16T16:15:54;11.05;;;4.60;;
57385;SDS011;66483;56.490;21.010;2023-07-16T16:18:22;8.25;;;5.28;;
57385;SDS011;66483;56.490;21.010;2023-07-16T16:20:49;10.65;;;5.78;;
57385;SDS011;66483;56.490;21.010;2023-07-16T16:23:17;8.93;;;5.22;;
57385;SDS011;66483;56.490;21.010;2023-07-16T16:25:44;8.25;;;4.90;;
57385;SDS011;66483;56.490;21.010;2023-07-16T16:28:14;6.47;;;3.92;;
57385;SDS011;66483;56.490;21.010;2023-07-16T16:30:41;7.75;;;4.22;;
57385;SDS011;66483;56.490;21.010;2023-07-16T16:33:09;7.72;;;4.85;;
57385;SDS011;66483;56.490;21.010;2023-07-16T16:35:40;8.73;;;3.70;;
57385;SDS011;66483;56.490;21.010;2023-07-16T16:38:09;6.53;;;3.35;;
57385;SDS011;66483;56.490;21.010;2023-07-16T16:40:37;10.00;;;4.22;;
57385;SDS011;66483;56.490;21.010;2023-07-16T16:43:08;10.15;;;4.20;;
57385;SDS011;66483;56.490;21.010;2023-07-16T16:45:35;7.43;;;3.45;;
57385;SDS011;66483;56.490;21.010;2023-07-16T16:48:07;8.32;;;4.70;;
57385;SDS011;66483;56.490;21.010;2023-07-16T16:50:36;6.38;;;4.10;;
57385;SDS011;66483;56.490;21.010;2023-07-16T16:53:04;6.90;;;4.03;;
57385;SDS011;66483;56.490;21.010;2023-07-16T16:55:31;8.00;;;4.30;;
57385;SDS011;66483;56.490;21.010;2023-07-16T16:57:58;6.97;;;3.17;;
57385;SDS011;66483;56.490;21.010;2023-07-16T17:00:26;11.73;;;2.92;;
57385;SDS011;66483;56.490;21.010;2023-07-16T17:02:53;5.68;;;2.75;;
57385;SDS011;66483;56.490;21.010;2023-07-16T17:05:21;8.68;;;3.58;;
57385;SDS011;66483;56.490;21.010;2023-07-16T17:07:49;6.40;;;3.63;;
57385;SDS011;66483;56.490;21.010;2023-07-16T17:10:16;5.72;;;2.53;;
57385;SDS011;66483;56.490;21.010;2023-07-16T17:12:44;4.60;;;1.73;;
57385;SDS011;66483;56.490;21.010;2023-07-16T17:15:12;6.00;;;2.72;;
57385;SDS011;66483;56.490;21.010;2023-07-16T17:17:40;8.88;;;4.15;;
57385;SDS011;66483;56.490;21.010;2023-07-16T17:20:07;5.95;;;3.25;;
57385;SDS011;66483;56.490;21.010;2023-07-16T17:22:39;5.75;;;2.42;;
57385;SDS011;66483;56.490;21.010;2023-07-16T17:25:07;5.70;;;2.88;;
57385;SDS011;66483;56.490;21.010;2023-07-16T17:27:36;5.10;;;2.17;;
57385;SDS011;66483;56.490;21.010;2023-07-16T17:30:04;12.05;;;5.65;;
57385;SDS011;66483;56.490;21.010;2023-07-16T17:32:34;5.63;;;2.35;;
57385;SDS011;66483;56.490;21.010;2023-07-16T17:35:02;6.13;;;3.38;;
57385;SDS011;66483;56.490;21.010;2023-07-16T17:37:29;7.85;;;3.67;;
57385;SDS011;66483;56.490;21.010;2023-07-16T17:39:57;6.45;;;2.40;;
57385;SDS011;66483;56.490;21.010;2023-07-16T17:42:25;5.05;;;2.53;;
57385;SDS011;66483;56.490;21.010;2023-07-16T17:44:52;5.00;;;2.33;;
57385;SDS011;66483;56.490;21.010;2023-07-16T17:47:21;8.43;;;4.38;;
57385;SDS011;66483;56.490;21.010;2023-07-16T17:49:49;7.55;;;3.28;;
57385;SDS011;66483;56.490;21.010;2023-07-16T17:52:18;8.60;;;3.25;;
57385;SDS011;66483;56.490;21.010;2023-07-16T17:54:45;6.22;;;2.88;;
57385;SDS011;66483;56.490;21.010;2023-07-16T17:57:12;5.90;;;3.10;;
57385;SDS011;66483;56.490;21.010;2023-07-16T17:59:40;4.15;;;1.95;;
57385;SDS011;66483;56.490;21.010;2023-07-16T18:02:07;10.27;;;4.32;;
57385;SDS011;66483;56.490;21.010;2023-07-16T18:04:38;5.47;;;2.72;;
57385;SDS011;66483;56.490;21.010;2023-07-16T18:07:06;6.78;;;3.15;;
57385;SDS011;66483;56.490;21.010;2023-07-16T18:09:33;7.13;;;2.13;;
57385;SDS011;66483;56.490;21.010;2023-07-16T18:12:00;3.92;;;1.15;;
57385;SDS011;66483;56.490;21.010;2023-07-16T18:14:28;5.25;;;1.25;;
57385;SDS011;66483;56.490;21.010;2023-07-16T18:16:56;4.53;;;1.70;;
57385;SDS011;66483;56.490;21.010;2023-07-16T18:19:24;4.25;;;1.33;;
57385;SDS011;66483;56.490;21.010;2023-07-16T18:21:51;16.85;;;14.75;;
57385;SDS011;66483;56.490;21.010;2023-07-16T18:24:38;5.85;;;2.15;;
57385;SDS011;66483;56.490;21.010;2023-07-16T18:27:05;10.18;;;6.70;;
57385;SDS011;66483;56.490;21.010;2023-07-16T18:29:33;7.03;;;4.13;;
57385;SDS011;66483;56.490;21.010;2023-07-16T18:32:00;5.07;;;2.90;;
57385;SDS011;66483;56.490;21.010;2023-07-16T18:34:28;5.18;;;1.98;;
57385;SDS011;66483;56.490;21.010;2023-07-16T18:36:56;5.82;;;2.60;;
57385;SDS011;66483;56.490;21.010;2023-07-16T18:39:23;9.30;;;7.18;;
57385;SDS011;66483;56.490;21.010;2023-07-16T18:41:50;7.53;;;2.63;;
57385;SDS011;66483;56.490;21.010;2023-07-16T18:44:18;6.35;;;2.72;;
57385;SDS011;66483;56.490;21.010;2023-07-16T18:46:45;5.88;;;2.15;;
57385;SDS011;66483;56.490;21.010;2023-07-16T18:49:12;9.30;;;2.72;;
57385;SDS011;66483;56.490;21.010;2023-07-16T18:51:39;7.15;;;3.15;;
57385;SDS011;66483;56.490;21.010;2023-07-16T18:54:06;4.80;;;2.53;;
57385;SDS011;66483;56.490;21.010;2023-07-16T18:56:33;5.15;;;1.85;;
57385;SDS011;66483;56.490;21.010;2023-07-16T18:59:01;5.22;;;2.38;;
57385;SDS011;66483;56.490;21.010;2023-07-16T19:01:28;5.28;;;1.35;;
57385;SDS011;66483;56.490;21.010;2023-07-16T19:03:55;5.78;;;1.40;;
57385;SDS011;66483;56.490;21.010;2023-07-16T19:06:22;7.03;;;3.60;;
57385;SDS011;66483;56.490;21.010;2023-07-16T19:08:49;6.60;;;4.07;;
57385;SDS011;66483;56.490;21.010;2023-07-16T19:11:17;6.50;;;2.80;;
57385;SDS011;66483;56.490;21.010;2023-07-16T19:13:44;6.47;;;2.17;;
57385;SDS011;66483;56.490;21.010;2023-07-16T19:16:11;5.63;;;2.90;;
57385;SDS011;66483;56.490;21.010;2023-07-16T19:18:39;4.80;;;2.63;;
57385;SDS011;66483;56.490;21.010;2023-07-16T19:21:06;2.95;;;0.82;;
57385;SDS011;66483;56.490;21.010;2023-07-16T19:23:34;5.88;;;1.90;;
57385;SDS011;66483;56.490;21.010;2023-07-16T19:26:01;4.70;;;1.95;;
57385;SDS011;66483;56.490;21.010;2023-07-16T19:28:28;4.85;;;2.55;;
57385;SDS011;66483;56.490;21.010;2023-07-16T19:30:55;4.75;;;1.50;;
57385;SDS011;66483;56.490;21.010;2023-07-16T19:33:22;4.30;;;1.65;;
57385;SDS011;66483;56.490;21.010;2023-07-16T19:35:50;4.53;;;0.80;;
57385;SDS011;66483;56.490;21.010;2023-07-16T19:38:41;6.55;;;1.55;;
57385;SDS011;66483;56.490;21.010;2023-07-16T19:41:09;3.40;;;1.30;;
57385;SDS011;66483;56.490;21.010;2023-07-16T19:43:36;3.90;;;1.35;;
57385;SDS011;66483;56.490;21.010;2023-07-16T19:46:05;5.47;;;1.60;;
57385;SDS011;66483;56.490;21.010;2023-07-16T19:48:33;4.82;;;0.90;;
57385;SDS011;66483;56.490;21.010;2023-07-16T19:51:01;3.55;;;0.95;;
57385;SDS011;66483;56.490;21.010;2023-07-16T19:53:31;6.20;;;1.35;;
57385;SDS011;66483;56.490;21.010;2023-07-16T19:55:58;4.80;;;1.10;;
57385;SDS011;66483;56.490;21.010;2023-07-16T19:58:26;4.00;;;1.58;;
57385;SDS011;66483;56.490;21.010;2023-07-16T20:00:53;7.63;;;1.27;;
57385;SDS011;66483;56.490;21.010;2023-07-16T20:03:21;4.30;;;0.80;;
57385;SDS011;66483;56.490;21.010;2023-07-16T20:05:48;5.32;;;0.90;;
57385;SDS011;66483;56.490;21.010;2023-07-16T20:08:15;3.67;;;0.80;;
57385;SDS011;66483;56.490;21.010;2023-07-16T20:10:44;5.53;;;0.73;;
57385;SDS011;66483;56.490;21.010;2023-07-16T20:13:13;6.38;;;1.30;;
57385;SDS011;66483;56.490;21.010;2023-07-16T20:15:41;6.68;;;2.15;;
57385;SDS011;66483;56.490;21.010;2023-07-16T20:18:13;5.22;;;0.90;;
57385;SDS011;66483;56.490;21.010;2023-07-16T20:20:42;4.63;;;1.27;;
57385;SDS011;66483;56.490;21.010;2023-07-16T20:23:10;3.53;;;1.17;;
57385;SDS011;66483;56.490;21.010;2023-07-16T20:25:37;6.90;;;1.65;;
57385;SDS011;66483;56.490;21.010;2023-07-16T20:28:09;4.95;;;2.22;;
57385;SDS011;66483;56.490;21.010;2023-07-16T20:30:41;6.28;;;1.33;;
57385;SDS011;66483;56.490;21.010;2023-07-16T20:33:09;5.57;;;0.98;;
57385;SDS011;66483;56.490;21.010;2023-07-16T20:35:37;5.78;;;1.70;;
57385;SDS011;66483;56.490;21.010;2023-07-16T20:38:04;4.20;;;1.13;;
57385;SDS011;66483;56.490;21.010;2023-07-16T20:40:33;5.30;;;1.58;;
57385;SDS011;66483;56.490;21.010;2023-07-16T20:43:01;6.20;;;1.80;;
57385;SDS011;66483;56.490;21.010;2023-07-16T20:45:29;4.65;;;0.95;;
57385;SDS011;66483;56.490;21.010;2023-07-16T20:47:57;5.38;;;1.88;;
57385;SDS011;66483;56.490;21.010;2023-07-16T20:50:27;4.38;;;1.42;;
57385;SDS011;66483;56.490;21.010;2023-07-16T20:52:58;5.22;;;1.48;;
57385;SDS011;66483;56.490;21.010;2023-07-16T20:55:26;4.93;;;1.50;;
57385;SDS011;66483;56.490;21.010;2023-07-16T20:57:54;3.67;;;1.45;;
57385;SDS011;66483;56.490;21.010;2023-07-16T21:00:21;4.50;;;1.65;;
57385;SDS011;66483;56.490;21.010;2023-07-16T21:02:52;4.93;;;1.58;;
57385;SDS011;66483;56.490;21.010;2023-07-16T21:05:22;5.35;;;1.20;;
57385;SDS011;66483;56.490;21.010;2023-07-16T21:07:50;3.47;;;1.00;;
57385;SDS011;66483;56.490;21.010;2023-07-16T21:10:18;3.47;;;0.70;;
57385;SDS011;66483;56.490;21.010;2023-07-16T21:12:50;3.45;;;0.82;;
57385;SDS011;66483;56.490;21.010;2023-07-16T21:15:18;6.03;;;1.10;;
57385;SDS011;66483;56.490;21.010;2023-07-16T21:17:47;4.65;;;1.40;;
57385;SDS011;66483;56.490;21.010;2023-07-16T21:20:14;4.70;;;1.20;;
57385;SDS011;66483;56.490;21.010;2023-07-16T21:22:42;5.35;;;1.05;;
57385;SDS011;66483;56.490;21.010;2023-07-16T21:25:09;4.30;;;1.50;;
57385;SDS011;66483;56.490;21.010;2023-07-16T21:27:46;5.63;;;1.92;;
57385;SDS011;66483;56.490;21.010;2023-07-16T21:30:15;6.18;;;1.65;;
57385;SDS011;66483;56.490;21.010;2023-07-16T21:32:42;4.03;;;1.13;;
57385;SDS011;66483;56.490;21.010;2023-07-16T21:35:11;4.50;;;1.10;;
57385;SDS011;66483;56.490;21.010;2023-07-16T21:37:38;3.67;;;1.00;;
57385;SDS011;66483;56.490;21.010;2023-07-16T21:40:06;5.72;;;1.30;;
57385;SDS011;66483;56.490;21.010;2023-07-16T21:42:34;3.55;;;0.85;;
57385;SDS011;66483;56.490;21.010;2023-07-16T21:45:01;5.60;;;1.00;;
57385;SDS011;66483;56.490;21.010;2023-07-16T21:47:29;4.72;;;1.50;;
57385;SDS011;66483;56.490;21.010;2023-07-16T21:49:57;3.63;;;1.27;;
57385;SDS011;66483;56.490;21.010;2023-07-16T21:52:24;4.95;;;1.20;;
57385;SDS011;66483;56.490;21.010;2023-07-16T21:54:51;4.90;;;1.42;;
57385;SDS011;66483;56.490;21.010;2023-07-16T21:57:18;4.53;;;0.82;;
57385;SDS011;66483;56.490;21.010;2023-07-16T21:59:46;3.45;;;0.77;;
57385;SDS011;66483;56.490;21.010;2023-07-16T22:02:13;6.05;;;1.50;;
57385;SDS011;66483;56.490;21.010;2023-07-16T22:04:41;3.58;;;0.98;;
57385;SDS011;66483;56.490;21.010;2023-07-16T22:07:08;3.35;;;1.08;;
57385;SDS011;66483;56.490;21.010;2023-07-16T22:09:36;4.65;;;1.40;;
57385;SDS011;66483;56.490;21.010;2023-07-16T22:12:03;4.70;;;0.70;;
57385;SDS011;66483;56.490;21.010;2023-07-16T22:14:30;3.78;;;1.40;;
57385;SDS011;66483;56.490;21.010;2023-07-16T22:16:59;5.28;;;1.45;;
57385;SDS011;66483;56.490;21.010;2023-07-16T22:19:26;3.75;;;0.75;;
57385;SDS011;66483;56.490;21.010;2023-07-16T22:21:58;5.10;;;1.38;;
57385;SDS011;66483;56.490;21.010;2023-07-16T22:24:27;4.80;;;0.90;;
57385;SDS011;66483;56.490;21.010;2023-07-16T22:26:54;4.05;;;1.27;;
57385;SDS011;66483;56.490;21.010;2023-07-16T22:29:21;4.65;;;2.15;;
57385;SDS011;66483;56.490;21.010;2023-07-16T22:31:48;5.40;;;2.72;;
57385;SDS011;66483;56.490;21.010;2023-07-16T22:34:15;4.82;;;2.30;;
57385;SDS011;66483;56.490;21.010;2023-07-16T22:36:43;5.03;;;1.35;;
57385;SDS011;66483;56.490;21.010;2023-07-16T22:39:11;5.63;;;1.85;;
57385;SDS011;66483;56.490;21.010;2023-07-16T22:41:39;6.35;;;2.65;;
57385;SDS011;66483;56.490;21.010;2023-07-16T22:44:06;6.30;;;1.83;;
57385;SDS011;66483;56.490;21.010;2023-07-16T22:46:33;5.07;;;2.35;;
57385;SDS011;66483;56.490;21.010;2023-07-16T22:49:01;7.10;;;1.73;;
57385;SDS011;66483;56.490;21.010;2023-07-16T22:51:28;5.57;;;1.77;;
57385;SDS011;66483;56.490;21.010;2023-07-16T22:53:55;28.95;;;3.20;;
57385;SDS011;66483;56.490;21.010;2023-07-16T22:56:22;7.68;;;2.10;;
57385;SDS011;66483;56.490;21.010;2023-07-16T22:58:50;8.57;;;2.28;;
57385;SDS011;66483;56.490;21.010;2023-07-16T23:01:17;10.18;;;2.67;;
57385;SDS011;66483;56.490;21.010;2023-07-16T23:03:45;9.25;;;2.42;;
57385;SDS011;66483;56.490;21.010;2023-07-16T23:06:12;9.50;;;3.25;;
57385;SDS011;66483;56.490;21.010;2023-07-16T23:08:39;6.25;;;2.67;;
57385;SDS011;66483;56.490;21.010;2023-07-16T23:11:06;6.55;;;2.25;;
57385;SDS011;66483;56.490;21.010;2023-07-16T23:13:34;7.53;;;3.00;;
57385;SDS011;66483;56.490;21.010;2023-07-16T23:16:01;5.85;;;1.67;;
57385;SDS011;66483;56.490;21.010;2023-07-16T23:18:29;8.70;;;1.98;;
57385;SDS011;66483;56.490;21.010;2023-07-16T23:20:57;5.93;;;2.22;;
57385;SDS011;66483;56.490;21.010;2023-07-16T23:23:25;6.50;;;1.75;;
57385;SDS011;66483;56.490;21.010;2023-07-16T23:25:52;6.00;;;1.65;;
57385;SDS011;66483;56.490;21.010;2023-07-16T23:28:19;5.32;;;2.63;;
57385;SDS011;66483;56.490;21.010;2023-07-16T23:30:47;5.82;;;1.15;;
57385;SDS011;66483;56.490;21.010;2023-07-16T23:33:14;4.78;;;1.75;;
57385;SDS011;66483;56.490;21.010;2023-07-16T23:35:41;4.22;;;1.55;;
57385;SDS011;66483;56.490;21.010;2023-07-16T23:38:08;5.57;;;1.73;;
57385;SDS011;66483;56.490;21.010;2023-07-16T23:40:41;4.57;;;1.00;;
57385;SDS011;66483;56.490;21.010;2023-07-16T23:43:08;5.70;;;1.27;;
57385;SDS011;66483;56.490;21.010;2023-07-16T23:45:35;5.68;;;1.33;;
57385;SDS011;66483;56.490;21.010;2023-07-16T23:48:03;4.97;;;1.67;;
57385;SDS011;66483;56.490;21.010;2023-07-16T23:50:31;4.97;;;1.60;;
57385;SDS011;66483;56.490;21.010;2023-07-16T23:52:58;5.68;;;1.75;;
57385;SDS011;66483;56.490;21.010;2023-07-16T23:55:25;5.40;;;1.80;;
57385;SDS011;66483;56.490;21.010;2023-07-16T23:57:52;5.40;;;1.10;;
